Terminal Aerodrome Forecast
Issued by NWS Wakefield, VA

Home | Current Version | Previous Version | Text Only | Print | Product List | Glossary On
Versions: 1 2 3 4 5 6 7 8 9 10 11 12 13 14
000
FTUS41 KAKQ 221100
TAFECG
TAF
KECG 221121Z 2212/2312 03014G20KT 2SM -RA BR OVC008
     FM221500 04013G19KT 2SM -RA BR OVC004
     FM221900 02009KT 4SM -DZ BR OVC004
     FM230000 01005KT 4SM BR OVC004=

USA.gov is the U.S. government's official web portal to all federal, state and local government web resources and services.